createdAt,value
2023-04-07T00:04:46.823Z,100602.80
2023-04-07T00:10:26.415Z,100597.60
2023-04-07T00:16:19.983Z,100602.80
2023-04-07T00:21:23.700Z,100600.40
2023-04-07T00:26:31.742Z,100601.40
2023-04-07T00:31:58.409Z,100594.60
2023-04-07T00:37:26.882Z,100593.80
2023-04-07T00:42:30.608Z,100585.40
2023-04-07T00:47:59.428Z,100583.20
2023-04-07T00:53:57.077Z,100576.20
2023-04-07T00:59:00.904Z,100580.40
2023-04-07T01:12:34.670Z,100569.20
2023-04-07T01:17:46.158Z,100566.20
2023-04-07T01:23:01.766Z,100568.80
2023-04-07T01:42:37.238Z,100553.40
2023-04-07T01:48:57.820Z,100548.00
2023-04-07T02:01:11.115Z,100535.20
2023-04-07T02:06:22.905Z,100537.80
2023-04-07T02:11:28.430Z,100540.80
2023-04-07T02:16:58.085Z,100535.80
2023-04-07T02:29:41.605Z,100535.20
2023-04-07T02:42:12.079Z,100531.40
2023-04-07T02:47:52.714Z,100528.40
2023-04-07T02:52:56.985Z,100522.00
2023-04-07T02:58:00.668Z,100521.40
2023-04-07T03:03:04.774Z,100516.60
2023-04-07T03:16:39.155Z,100509.20
2023-04-07T03:32:08.383Z,100516.40
2023-04-07T03:37:12.045Z,100516.40
2023-04-07T03:42:21.351Z,100519.80
2023-04-07T03:48:16.483Z,100528.40
2023-04-07T03:54:04.222Z,100527.20
2023-04-07T03:59:07.807Z,100523.80
2023-04-07T04:04:11.642Z,100522.60
2023-04-07T04:09:15.990Z,100523.40
2023-04-07T04:21:34.537Z,100530.80
2023-04-07T04:34:56.755Z,100532.80
2023-04-07T04:40:00.814Z,100540.40
2023-04-07T04:45:08.460Z,100537.20
2023-04-07T04:58:49.254Z,100550.40
2023-04-07T05:03:53.488Z,100551.00
2023-04-07T05:09:45.092Z,100552.20
2023-04-07T05:15:39.981Z,100547.20
2023-04-07T05:28:21.377Z,100551.00
2023-04-07T05:42:42.815Z,100548.20
2023-04-07T05:48:45.458Z,100541.80
2023-04-07T05:54:16.041Z,100545.40
2023-04-07T05:59:20.144Z,100541.40
2023-04-07T06:04:50.885Z,100541.00
2023-04-07T06:09:54.518Z,100544.20
2023-04-07T06:15:49.721Z,100548.40
2023-04-07T06:20:54.400Z,100556.60
2023-04-07T06:27:40.158Z,100552.00
2023-04-07T06:34:01.787Z,100548.80
2023-04-07T06:40:22.730Z,100560.60
2023-04-07T06:52:57.290Z,100563.00
2023-04-07T06:58:01.265Z,100556.40
2023-04-07T07:03:07.527Z,100547.40
2023-04-07T07:15:15.980Z,100547.40
2023-04-07T07:20:19.798Z,100547.20
2023-04-07T07:25:23.593Z,100551.20
2023-04-07T07:30:27.233Z,100552.60
2023-04-07T07:35:33.520Z,100560.20
2023-04-07T07:40:37.162Z,100573.40
2023-04-07T07:46:31.523Z,100583.20
2023-04-07T07:51:35.868Z,100587.20
2023-04-07T07:56:39.527Z,100590.60
2023-04-07T08:01:43.261Z,100586.80
2023-04-07T08:06:46.970Z,100583.60
2023-04-07T08:12:19.414Z,100572.80
2023-04-07T08:17:23.109Z,100573.80
2023-04-07T08:22:26.752Z,100569.60
2023-04-07T08:27:30.769Z,100562.00
2023-04-07T08:32:42.479Z,100563.00
2023-04-07T08:37:46.267Z,100565.00
2023-04-07T08:42:51.124Z,100567.20
2023-04-07T08:47:58.285Z,100558.40
2023-04-07T08:53:09.425Z,100546.40
2023-04-07T08:58:16.324Z,100549.80
2023-04-07T09:03:20.387Z,100553.80
2023-04-07T09:08:24.371Z,100548.00
2023-04-07T09:13:28.160Z,100546.00
2023-04-07T09:18:32.066Z,100544.60
2023-04-07T09:23:38.956Z,100543.80
2023-04-07T09:28:44.118Z,100546.20
2023-04-07T09:34:24.811Z,100549.60
2023-04-07T09:39:29.764Z,100563.80
2023-04-07T09:44:44.328Z,100557.20
2023-04-07T09:49:54.689Z,100545.20
2023-04-07T09:55:08.478Z,100555.20
2023-04-07T10:00:13.405Z,100553.20
2023-04-07T10:05:18.080Z,100554.80
2023-04-07T10:11:59.649Z,100563.00
2023-04-07T10:18:19.476Z,100560.20
2023-04-07T10:24:06.230Z,100552.40
2023-04-07T10:44:53.403Z,100541.00
2023-04-07T10:58:57.802Z,100534.00
2023-04-07T11:04:02.209Z,100525.80
2023-04-07T11:16:42.850Z,100514.00
2023-04-07T11:34:31.628Z,100504.80
2023-04-07T11:39:36.216Z,100500.80
2023-04-07T11:44:46.647Z,100498.40
2023-04-07T11:49:50.332Z,100501.80
2023-04-07T11:55:03.343Z,100498.80
2023-04-07T12:10:41.022Z,100491.40
2023-04-07T12:15:45.337Z,100486.60
2023-04-07T12:22:13.328Z,100494.80
2023-04-07T12:37:10.357Z,100502.20
2023-04-07T12:42:40.074Z,100509.00
2023-04-07T12:54:51.105Z,100507.00
2023-04-07T13:14:39.706Z,100520.00
2023-04-07T13:19:57.189Z,100519.80
2023-04-07T13:25:52.825Z,100514.20
2023-04-07T13:30:56.585Z,100505.40
2023-04-07T13:59:08.132Z,100507.40
2023-04-07T14:04:12.734Z,100502.00
2023-04-07T14:17:46.706Z,100500.40
2023-04-07T14:22:58.720Z,100502.20
2023-04-07T14:35:24.559Z,100504.60
2023-04-07T14:40:28.385Z,100503.40
2023-04-07T14:46:52.921Z,100504.40
2023-04-07T14:52:24.862Z,100504.60
2023-04-07T14:57:50.537Z,100502.80
2023-04-07T15:02:55.825Z,100503.20
2023-04-07T15:08:11.742Z,100498.80
2023-04-07T15:20:36.423Z,100508.40
2023-04-07T15:26:31.553Z,100506.60
2023-04-07T15:31:35.470Z,100503.40
2023-04-07T15:37:14.684Z,100509.60
2023-04-07T15:43:17.643Z,100509.40
2023-04-07T15:48:21.737Z,100511.80
2023-04-07T16:00:37.098Z,100516.20
2023-04-07T16:07:10.206Z,100514.60
2023-04-07T16:12:42.837Z,100525.00
2023-04-07T16:19:09.806Z,100528.00
2023-04-07T16:24:13.495Z,100537.40
2023-04-07T16:29:44.571Z,100548.40
2023-04-07T16:36:10.553Z,100554.80
2023-04-07T16:41:14.758Z,100591.40
2023-04-07T16:46:21.617Z,100623.60
2023-04-07T16:51:28.942Z,100626.60
2023-04-07T16:56:33.091Z,100626.40
2023-04-07T17:01:42.154Z,100625.60
2023-04-07T17:06:49.858Z,100621.40
2023-04-07T17:11:53.639Z,100632.00
2023-04-07T17:16:58.344Z,100645.40
2023-04-07T17:22:01.950Z,100651.00
2023-04-07T17:27:06.023Z,100660.20
2023-04-07T17:32:09.896Z,100666.40
2023-04-07T17:37:13.980Z,100668.80
2023-04-07T17:42:18.286Z,100676.20
2023-04-07T17:47:22.699Z,100683.00
2023-04-07T17:52:29.244Z,100686.60
2023-04-07T17:57:33.396Z,100688.60
2023-04-07T18:02:41.425Z,100695.20
2023-04-07T18:08:34.881Z,100703.20
2023-04-07T18:22:12.743Z,100742.40
2023-04-07T18:28:32.724Z,100747.00
2023-04-07T18:34:01.726Z,100746.40
2023-04-07T18:39:06.442Z,100766.40
2023-04-07T18:45:34.343Z,100755.60
2023-04-07T18:51:19.838Z,100770.40
2023-04-07T18:57:40.819Z,100780.20
2023-04-07T19:04:16.346Z,100787.20
2023-04-07T19:09:21.244Z,100794.40
2023-04-07T19:21:59.567Z,100789.60
2023-04-07T19:27:04.696Z,100783.00
2023-04-07T19:32:09.506Z,100782.40
2023-04-07T19:37:40.943Z,100781.40
2023-04-07T19:42:45.489Z,100790.60
2023-04-07T19:48:16.038Z,100797.00
2023-04-07T19:53:19.785Z,100800.40
2023-04-07T19:58:25.329Z,100808.80
2023-04-07T20:03:33.541Z,100808.80
2023-04-07T20:08:38.347Z,100811.60
2023-04-07T20:13:43.265Z,100817.00
2023-04-07T20:18:48.528Z,100818.80
2023-04-07T20:23:52.921Z,100833.40
2023-04-07T20:28:57.832Z,100835.60
2023-04-07T20:34:04.143Z,100844.40
2023-04-07T20:39:08.520Z,100853.00
2023-04-07T20:44:12.799Z,100858.40
2023-04-07T20:49:17.235Z,100863.40
2023-04-07T20:54:21.322Z,100874.80
2023-04-07T20:59:27.873Z,100878.20
2023-04-07T21:04:32.233Z,100887.40
2023-04-07T21:09:36.090Z,100896.40
2023-04-07T21:14:40.034Z,100895.60
2023-04-07T21:19:44.892Z,100900.20
2023-04-07T21:24:49.922Z,100903.00
2023-04-07T21:29:55.040Z,100904.60
2023-04-07T21:35:01.301Z,100904.80
2023-04-07T21:40:07.347Z,100904.40
2023-04-07T21:45:12.530Z,100902.40
2023-04-07T21:50:17.354Z,100906.20
2023-04-07T21:55:21.926Z,100905.60
2023-04-07T22:00:26.441Z,100912.20
2023-04-07T22:05:30.999Z,100915.60
2023-04-07T22:10:35.117Z,100916.60
2023-04-07T22:15:41.298Z,100913.80
2023-04-07T22:20:46.052Z,100915.40
2023-04-07T22:25:51.613Z,100916.60
2023-04-07T22:30:55.955Z,100919.60
2023-04-07T22:36:01.178Z,100932.00
2023-04-07T22:41:05.273Z,100929.40
2023-04-07T22:46:10.103Z,100940.80
2023-04-07T22:51:13.603Z,100942.40
2023-04-07T22:56:19.790Z,100945.80
2023-04-07T23:01:23.509Z,100950.40
2023-04-07T23:06:29.081Z,100956.60
2023-04-07T23:11:33.009Z,100959.40
2023-04-07T23:16:38.146Z,100963.80
2023-04-07T23:21:43.930Z,100962.40
2023-04-07T23:26:48.081Z,100967.80
2023-04-07T23:31:53.240Z,100968.60
2023-04-07T23:36:57.160Z,100967.20
2023-04-07T23:42:00.895Z,100970.60
2023-04-07T23:47:04.624Z,100970.60
2023-04-07T23:52:09.982Z,100968.00
2023-04-07T23:57:13.921Z,100970.20
